createdAt,value
2019-04-26T00:02:18.529Z,79.73
2019-04-26T00:04:43.888Z,79.72
2019-04-26T00:07:10.465Z,80.31
2019-04-26T00:09:36.551Z,80.78
2019-04-26T00:12:02.855Z,80.59
2019-04-26T00:14:29.198Z,81.02
2019-04-26T00:16:55.532Z,81.10
2019-04-26T00:19:22.277Z,81.81
2019-04-26T00:21:48.193Z,81.95
2019-04-26T00:24:15.259Z,81.59
2019-04-26T00:26:40.831Z,82.39
2019-04-26T00:29:07.174Z,82.89
2019-04-26T00:31:33.509Z,82.51
2019-04-26T00:33:59.808Z,82.41
2019-04-26T00:36:26.150Z,82.78
2019-04-26T00:38:52.457Z,83.10
2019-04-26T00:41:18.794Z,83.46
2019-04-26T00:43:45.106Z,83.28
2019-04-26T00:46:13.255Z,83.39
2019-04-26T00:48:37.750Z,83.22
2019-04-26T00:51:04.091Z,83.48
2019-04-26T00:53:30.429Z,83.86
2019-04-26T00:55:56.762Z,84.09
2019-04-26T00:58:24.401Z,85.00
2019-04-26T01:00:49.503Z,84.41
2019-04-26T01:03:16.639Z,84.65
2019-04-26T01:05:42.171Z,85.45
2019-04-26T01:08:08.504Z,86.14
2019-04-26T01:10:34.895Z,86.52
2019-04-26T01:13:01.213Z,86.84
2019-04-26T01:15:27.558Z,86.58
2019-04-26T01:17:53.906Z,86.44
2019-04-26T01:20:20.396Z,85.81
2019-04-26T01:22:46.556Z,86.15
2019-04-26T01:25:12.949Z,86.68
2019-04-26T01:27:39.264Z,87.03
2019-04-26T01:30:05.703Z,87.21
2019-04-26T01:32:32.032Z,87.43
2019-04-26T01:37:42.619Z,87.48
2019-04-26T01:40:08.939Z,87.87
2019-04-26T01:42:35.374Z,88.14
2019-04-26T01:45:01.702Z,88.01
2019-04-26T01:47:28.417Z,88.06
2019-04-26T01:49:54.345Z,88.04
2019-04-26T01:52:22.367Z,88.41
2019-04-26T01:54:46.980Z,89.68
2019-04-26T01:57:13.314Z,89.31
2019-04-26T01:59:39.639Z,89.47
2019-04-26T02:02:05.958Z,89.84
2019-04-26T02:04:32.279Z,89.78
2019-04-26T02:06:58.614Z,90.08
2019-04-26T02:09:24.929Z,90.08
2019-04-26T02:11:51.259Z,89.73
2019-04-26T02:14:17.616Z,89.49
2019-04-26T02:16:43.925Z,90.06
2019-04-26T02:19:10.263Z,89.71
2019-04-26T02:21:36.575Z,89.64
2019-04-26T02:24:02.904Z,89.33
2019-04-26T02:26:30.359Z,89.60
2019-04-26T02:28:55.554Z,90.21
2019-04-26T02:31:21.892Z,89.94
2019-04-26T02:33:48.205Z,90.08
2019-04-26T02:36:14.539Z,90.02
2019-04-26T02:38:40.855Z,90.79
2019-04-26T02:41:07.203Z,90.96
2019-04-26T02:43:35.174Z,90.93
2019-04-26T02:45:59.872Z,91.49
2019-04-26T02:48:28.316Z,91.03
2019-04-26T02:50:52.467Z,91.03
2019-04-26T02:53:18.816Z,91.20
2019-04-26T02:55:45.115Z,90.91
2019-04-26T02:58:11.463Z,91.10
2019-04-26T03:00:39.107Z,90.87
2019-04-26T03:03:04.096Z,90.77
2019-04-26T03:05:31.759Z,90.60
2019-04-26T03:07:56.780Z,90.34
2019-04-26T03:10:23.073Z,90.91
2019-04-26T03:12:49.399Z,90.64
2019-04-26T03:15:15.736Z,90.76
2019-04-26T03:17:43.037Z,89.95
2019-04-26T03:20:08.388Z,89.66
2019-04-26T03:22:35.667Z,90.25
2019-04-26T03:25:01.070Z,90.70
2019-04-26T03:27:27.374Z,90.57
2019-04-26T03:30:05.011Z,90.80
2019-04-26T03:32:20.054Z,90.78
2019-04-26T03:34:52.967Z,91.01
2019-04-26T03:37:20.648Z,91.11
2019-04-26T03:39:40.834Z,91.40
2019-04-26T03:42:05.410Z,91.78
2019-04-26T03:44:33.054Z,90.85
2019-04-26T03:46:58.073Z,90.02
2019-04-26T03:49:24.385Z,90.25
2019-04-26T03:51:50.764Z,90.67
2019-04-26T03:54:17.080Z,90.94
2019-04-26T03:56:44.091Z,91.23
2019-04-26T03:59:09.715Z,91.08
2019-04-26T04:01:37.279Z,91.02
2019-04-26T04:04:02.425Z,90.37
2019-04-26T04:06:28.774Z,89.96
2019-04-26T04:08:55.062Z,89.28
2019-04-26T04:11:21.399Z,88.63
2019-04-26T04:13:50.908Z,88.67
2019-04-26T04:16:14.032Z,88.66
2019-04-26T04:18:41.766Z,88.34
2019-04-26T04:21:06.675Z,87.51
2019-04-26T04:23:32.996Z,87.74
2019-04-26T04:25:59.350Z,87.32
2019-04-26T04:28:25.696Z,86.38
2019-04-26T04:30:52.009Z,85.98
2019-04-26T04:33:18.351Z,84.85
2019-04-26T04:35:46.066Z,84.30
2019-04-26T04:38:11.011Z,83.45
2019-04-26T04:40:37.322Z,82.84
2019-04-26T04:43:03.743Z,82.14
2019-04-26T04:45:29.954Z,81.86
2019-04-26T04:47:56.271Z,80.69
2019-04-26T04:50:22.627Z,78.43
2019-04-26T04:52:50.085Z,76.76
2019-04-26T04:55:15.310Z,75.19
2019-04-26T04:57:41.943Z,74.44
2019-04-26T05:00:08.031Z,74.61
2019-04-26T05:02:34.397Z,74.65
2019-04-26T05:05:00.678Z,73.88
2019-04-26T05:07:27.012Z,72.40
2019-04-26T05:09:53.678Z,71.01
2019-04-26T05:12:19.648Z,71.04
2019-04-26T05:14:46.220Z,70.55
2019-04-26T05:17:12.311Z,69.76
2019-04-26T05:19:38.652Z,67.84
2019-04-26T05:22:04.960Z,68.13
2019-04-26T05:24:31.323Z,66.52
2019-04-26T05:26:57.650Z,65.11
2019-04-26T05:29:23.961Z,65.03
2019-04-26T05:31:51.526Z,66.16
2019-04-26T05:34:16.606Z,66.36
2019-04-26T05:36:42.920Z,66.93
2019-04-26T05:39:09.248Z,66.54
2019-04-26T05:41:35.644Z,65.80
2019-04-26T05:44:01.972Z,64.15
2019-04-26T05:46:28.304Z,63.58
2019-04-26T05:48:55.646Z,62.25
2019-04-26T05:51:21.017Z,63.30
2019-04-26T05:53:48.508Z,62.80
2019-04-26T05:56:13.999Z,61.63
2019-04-26T05:58:40.328Z,59.77
2019-04-26T06:01:06.657Z,60.49
2019-04-26T06:03:32.969Z,58.97
2019-04-26T06:05:59.288Z,58.98
2019-04-26T06:08:31.320Z,59.07
2019-04-26T06:10:53.057Z,60.42
2019-04-26T06:13:18.306Z,59.43
2019-04-26T06:15:44.614Z,59.88
2019-04-26T06:18:10.963Z,59.15
2019-04-26T06:20:37.274Z,59.23
2019-04-26T06:23:03.613Z,59.37
2019-04-26T06:25:29.945Z,58.48
2019-04-26T06:27:56.314Z,56.57
2019-04-26T06:30:22.604Z,56.08
2019-04-26T06:32:56.407Z,56.60
2019-04-26T06:35:15.248Z,55.34
2019-04-26T06:37:41.554Z,54.43
2019-04-26T06:40:07.889Z,55.15
2019-04-26T06:42:34.192Z,54.90
2019-04-26T06:45:00.503Z,54.08
2019-04-26T06:47:26.835Z,54.71
2019-04-26T06:49:53.136Z,53.23
2019-04-26T06:52:19.485Z,52.39
2019-04-26T06:54:45.813Z,52.67
2019-04-26T06:57:14.959Z,53.35
2019-04-26T06:59:38.470Z,53.30
2019-04-26T07:02:04.819Z,52.83
2019-04-26T07:04:31.171Z,51.86
2019-04-26T07:06:58.227Z,52.27
2019-04-26T07:09:23.799Z,51.31
2019-04-26T07:11:50.153Z,50.15
2019-04-26T07:14:16.481Z,48.97
2019-04-26T07:16:42.816Z,49.24
2019-04-26T07:19:09.127Z,48.48
2019-04-26T07:21:35.476Z,47.75
2019-04-26T07:24:02.874Z,48.68
2019-04-26T07:26:28.136Z,49.06
2019-04-26T07:28:54.484Z,48.25
2019-04-26T07:31:20.818Z,48.16
2019-04-26T07:33:47.153Z,50.34
2019-04-26T07:36:13.483Z,49.75
2019-04-26T07:38:39.991Z,49.26
2019-04-26T07:41:09.353Z,49.75
2019-04-26T07:43:35.768Z,47.81
2019-04-26T07:46:02.912Z,48.30
2019-04-26T07:48:28.494Z,47.60
2019-04-26T07:50:54.826Z,47.72
2019-04-26T07:53:21.138Z,48.15
2019-04-26T07:55:47.469Z,47.94
2019-04-26T07:58:13.802Z,46.55
2019-04-26T08:00:46.104Z,46.69
2019-04-26T08:03:13.028Z,47.72
2019-04-26T08:05:38.745Z,47.04
2019-04-26T08:08:05.856Z,46.06
2019-04-26T08:10:31.432Z,46.13
2019-04-26T08:12:57.731Z,46.41
2019-04-26T08:15:25.100Z,45.94
2019-04-26T08:17:50.454Z,44.55
2019-04-26T08:20:16.737Z,43.58
2019-04-26T08:22:43.068Z,44.29
2019-04-26T08:25:12.455Z,43.89
2019-04-26T08:27:38.080Z,43.83
2019-04-26T08:30:10.522Z,43.36
2019-04-26T08:32:32.162Z,42.52
2019-04-26T08:35:02.263Z,43.68
2019-04-26T08:37:26.789Z,42.61
2019-04-26T08:39:53.223Z,41.78
2019-04-26T08:42:23.832Z,42.06
2019-04-26T08:44:45.986Z,41.50
2019-04-26T08:47:16.744Z,41.93
2019-04-26T08:49:39.161Z,42.51
2019-04-26T08:52:13.948Z,41.54
2019-04-26T08:54:32.645Z,41.10
2019-04-26T08:56:57.641Z,40.89
2019-04-26T08:59:23.968Z,40.46
2019-04-26T09:01:50.290Z,40.52
2019-04-26T09:04:16.599Z,40.53
2019-04-26T09:06:42.934Z,38.96
2019-04-26T09:09:09.249Z,38.18
2019-04-26T09:11:35.582Z,38.75
2019-04-26T09:14:01.895Z,39.14
2019-04-26T09:16:28.221Z,38.36
2019-04-26T09:18:59.393Z,37.56
2019-04-26T09:21:20.841Z,37.45
2019-04-26T09:23:50.856Z,37.26
2019-04-26T09:26:13.697Z,38.56
2019-04-26T09:28:39.813Z,37.52
2019-04-26T09:31:06.283Z,36.59
2019-04-26T09:33:35.942Z,36.15
2019-04-26T09:35:59.041Z,35.86
2019-04-26T09:38:25.366Z,35.56
2019-04-26T09:40:52.647Z,35.35
2019-04-26T09:43:18.125Z,34.95
2019-04-26T09:45:44.507Z,34.90
2019-04-26T09:48:10.921Z,34.40
2019-04-26T09:50:37.223Z,34.68
2019-04-26T09:53:03.556Z,33.40
2019-04-26T09:55:35.541Z,34.51
2019-04-26T09:57:57.312Z,33.22
2019-04-26T10:00:23.268Z,34.29
2019-04-26T10:02:49.593Z,33.82
2019-04-26T10:05:17.662Z,32.21
2019-04-26T10:07:42.237Z,31.48
2019-04-26T10:10:08.560Z,31.44
2019-04-26T10:12:34.902Z,31.09
2019-04-26T10:15:01.218Z,30.97
2019-04-26T10:17:27.561Z,29.64
2019-04-26T10:19:53.905Z,29.94
2019-04-26T10:22:20.210Z,30.40
2019-04-26T10:24:46.546Z,29.62
2019-04-26T10:27:12.867Z,29.77
2019-04-26T10:29:39.190Z,29.52
2019-04-26T10:32:05.509Z,29.54
2019-04-26T10:34:31.831Z,29.38
2019-04-26T10:37:01.486Z,30.48
2019-04-26T10:39:24.453Z,30.22
2019-04-26T10:41:50.786Z,31.06
2019-04-26T10:44:17.082Z,30.02
2019-04-26T10:46:55.018Z,30.20
2019-04-26T10:49:12.053Z,30.56
2019-04-26T10:51:38.612Z,29.72
2019-04-26T10:54:05.914Z,29.52
2019-04-26T10:56:28.681Z,29.67
2019-04-26T10:58:55.000Z,30.12
2019-04-26T11:01:21.335Z,30.13
2019-04-26T11:03:47.680Z,29.47
2019-04-26T11:06:14.011Z,29.20
2019-04-26T11:08:40.310Z,27.92
2019-04-26T11:11:06.639Z,27.99
2019-04-26T11:13:32.939Z,29.02
2019-04-26T11:16:02.522Z,28.34
2019-04-26T11:18:27.441Z,28.69
2019-04-26T11:20:51.896Z,28.48
2019-04-26T11:23:18.224Z,28.05
2019-04-26T11:25:44.550Z,27.91
2019-04-26T11:28:10.872Z,27.00
2019-04-26T11:30:37.178Z,26.45
2019-04-26T11:33:03.519Z,26.88
2019-04-26T11:35:33.169Z,24.98
2019-04-26T11:37:56.982Z,25.22
2019-04-26T11:40:22.500Z,25.26
2019-04-26T11:42:48.777Z,24.59
2019-04-26T11:45:16.184Z,25.21
2019-04-26T11:47:54.569Z,25.71
2019-04-26T11:50:08.061Z,25.09
2019-04-26T11:52:36.038Z,25.96
2019-04-26T11:55:00.662Z,26.06
2019-04-26T11:57:26.981Z,26.27
2019-04-26T11:59:53.297Z,27.15
2019-04-26T12:02:19.636Z,29.50
2019-04-26T12:04:49.516Z,31.19
2019-04-26T12:07:12.261Z,31.83
2019-04-26T12:09:38.583Z,31.66
2019-04-26T12:12:05.406Z,31.35
2019-04-26T12:14:33.491Z,30.52
2019-04-26T12:16:59.590Z,30.01
2019-04-26T12:19:23.862Z,29.94
2019-04-26T12:21:50.200Z,30.06
2019-04-26T12:24:16.501Z,30.56
2019-04-26T12:26:46.172Z,30.56
2019-04-26T12:29:10.524Z,30.14
2019-04-26T12:31:35.488Z,30.59
2019-04-26T12:34:01.794Z,30.22
2019-04-26T12:36:28.095Z,30.50
2019-04-26T12:38:54.426Z,30.47
2019-04-26T12:41:30.042Z,30.41
2019-04-26T12:43:47.060Z,30.35
2019-04-26T12:46:14.319Z,30.35
2019-04-26T12:48:39.696Z,30.08
2019-04-26T12:51:08.222Z,29.97
2019-04-26T12:53:33.004Z,29.13
2019-04-26T12:55:58.658Z,29.71
2019-04-26T12:58:24.993Z,30.29
2019-04-26T13:00:54.303Z,30.35
2019-04-26T13:03:20.484Z,30.54
2019-04-26T13:05:43.979Z,30.19
2019-04-26T13:08:13.070Z,30.43
2019-04-26T13:10:36.942Z,30.01
2019-04-26T13:13:02.888Z,30.60
2019-04-26T13:15:29.209Z,30.07
2019-04-26T13:17:55.537Z,30.26
2019-04-26T13:20:24.264Z,30.93
2019-04-26T13:22:50.207Z,30.58
2019-04-26T13:25:17.420Z,30.43
2019-04-26T13:27:41.569Z,29.90
2019-04-26T13:30:10.615Z,30.11
2019-04-26T13:32:33.542Z,30.17
2019-04-26T13:34:59.850Z,29.84
2019-04-26T13:37:26.184Z,29.39
2019-04-26T13:39:55.300Z,29.98
2019-04-26T13:42:18.851Z,29.45
2019-04-26T13:44:45.153Z,29.85
2019-04-26T13:47:11.483Z,30.64
2019-04-26T13:49:37.789Z,30.11
2019-04-26T13:52:04.111Z,30.23
2019-04-26T13:54:30.434Z,30.78
2019-04-26T13:56:56.740Z,30.93
2019-04-26T13:59:23.096Z,30.31
2019-04-26T14:01:49.407Z,30.54
2019-04-26T14:04:15.771Z,30.48
2019-04-26T14:06:42.052Z,29.81
2019-04-26T14:09:08.377Z,30.19
2019-04-26T14:11:34.684Z,30.38
2019-04-26T14:14:01.843Z,29.93
2019-04-26T14:16:27.587Z,30.30
2019-04-26T14:18:53.674Z,30.40
2019-04-26T14:21:19.970Z,30.58
2019-04-26T14:23:49.477Z,30.63
2019-04-26T14:26:12.664Z,30.56
2019-04-26T14:28:41.809Z,30.50
2019-04-26T14:31:05.335Z,30.43
2019-04-26T14:33:32.284Z,30.62
2019-04-26T14:35:57.946Z,30.42
2019-04-26T14:38:28.115Z,30.90
2019-04-26T14:41:03.227Z,30.53
2019-04-26T14:43:18.247Z,30.33
2019-04-26T14:45:55.397Z,30.70
2019-04-26T14:48:20.093Z,30.58
2019-04-26T14:50:35.940Z,30.16
2019-04-26T14:53:03.446Z,30.33
2019-04-26T14:55:28.597Z,30.41
2019-04-26T14:57:54.935Z,30.70
2019-04-26T15:00:22.271Z,30.21
2019-04-26T15:02:48.494Z,30.29
2019-04-26T15:05:13.899Z,30.13
2019-04-26T15:07:49.415Z,30.43
2019-04-26T15:10:06.915Z,30.70
2019-04-26T15:12:45.676Z,30.45
2019-04-26T15:14:59.181Z,30.44
2019-04-26T15:17:26.605Z,30.61
2019-04-26T15:19:51.818Z,30.69
2019-04-26T15:22:18.143Z,30.79
2019-04-26T15:24:44.443Z,30.65
2019-04-26T15:27:10.792Z,30.81
2019-04-26T15:29:37.106Z,30.68
2019-04-26T15:32:05.313Z,31.02
2019-04-26T15:34:29.739Z,30.73
2019-04-26T15:36:56.042Z,31.04
2019-04-26T15:39:23.201Z,31.02
2019-04-26T15:41:51.233Z,31.15
2019-04-26T15:44:15.033Z,31.17
2019-04-26T15:46:42.563Z,31.16
2019-04-26T15:49:09.550Z,31.41
2019-04-26T15:51:33.992Z,31.21
2019-04-26T15:54:00.297Z,31.22
2019-04-26T15:56:26.626Z,31.54
2019-04-26T15:58:52.974Z,31.93
2019-04-26T16:01:19.288Z,31.91
2019-04-26T16:03:45.620Z,32.03
2019-04-26T16:06:12.649Z,33.63
2019-04-26T16:08:42.675Z,36.41
2019-04-26T16:11:07.213Z,37.09
2019-04-26T16:13:32.280Z,37.35
2019-04-26T16:15:57.239Z,37.63
2019-04-26T16:18:23.542Z,37.82
2019-04-26T16:20:49.875Z,38.17
2019-04-26T16:23:16.203Z,38.41
2019-04-26T16:25:42.899Z,38.88
2019-04-26T16:28:09.367Z,39.39
2019-04-26T16:30:37.515Z,39.84
2019-04-26T16:33:02.708Z,39.82
2019-04-26T16:35:28.290Z,39.91
2019-04-26T16:37:54.131Z,40.35
2019-04-26T16:40:20.451Z,40.34
2019-04-26T16:42:49.695Z,40.60
2019-04-26T16:45:13.098Z,40.94
2019-04-26T16:47:45.175Z,40.98
2019-04-26T16:50:05.756Z,41.15
2019-04-26T16:52:33.714Z,41.81
2019-04-26T16:55:02.799Z,41.71
2019-04-26T16:57:26.425Z,42.01
2019-04-26T16:59:57.578Z,42.71
2019-04-26T17:02:25.675Z,43.12
2019-04-26T17:04:45.310Z,43.47
2019-04-26T17:07:13.286Z,43.55
2019-04-26T17:09:57.046Z,43.76
2019-04-26T17:12:04.289Z,43.56
2019-04-26T17:14:33.767Z,43.96
2019-04-26T17:16:56.917Z,44.66
2019-04-26T17:19:23.245Z,45.05
2019-04-26T17:21:49.548Z,45.48
2019-04-26T17:24:15.880Z,45.98
2019-04-26T17:26:42.808Z,46.15
2019-04-26T17:29:08.561Z,46.70
2019-04-26T17:31:34.830Z,47.45
2019-04-26T17:34:01.146Z,48.25
2019-04-26T17:36:27.466Z,48.81
2019-04-26T17:38:53.768Z,49.10
2019-04-26T17:41:20.104Z,49.27
2019-04-26T17:43:48.258Z,49.79
2019-04-26T17:46:18.347Z,49.84
2019-04-26T17:48:44.865Z,50.01
2019-04-26T17:51:12.135Z,49.32
2019-04-26T17:53:34.360Z,49.16
2019-04-26T17:56:00.778Z,49.16
2019-04-26T17:58:30.989Z,49.12
2019-04-26T18:00:56.365Z,49.31
2019-04-26T18:03:21.337Z,49.37
2019-04-26T18:05:56.788Z,49.70
2019-04-26T18:08:33.200Z,49.71
2019-04-26T18:10:41.332Z,49.75
2019-04-26T18:13:04.959Z,49.90
2019-04-26T18:15:31.288Z,50.10
2019-04-26T18:17:57.588Z,50.43
2019-04-26T18:20:23.921Z,50.55
2019-04-26T18:22:50.224Z,50.63
2019-04-26T18:25:16.545Z,50.69
2019-04-26T18:27:43.506Z,51.14
2019-04-26T18:30:13.554Z,51.37
2019-04-26T18:32:41.987Z,51.60
2019-04-26T18:35:01.850Z,51.89
2019-04-26T18:37:28.168Z,52.19
2019-04-26T18:39:57.367Z,52.38
2019-04-26T18:42:20.811Z,52.59
2019-04-26T18:44:47.911Z,53.14
2019-04-26T18:47:14.784Z,53.58
2019-04-26T18:49:39.765Z,53.76
2019-04-26T18:52:08.805Z,54.13
2019-04-26T18:54:32.881Z,54.24
2019-04-26T18:56:58.775Z,54.44
2019-04-26T18:59:27.707Z,54.70
2019-04-26T19:01:51.406Z,54.82
2019-04-26T19:04:17.724Z,55.09
2019-04-26T19:06:44.084Z,55.13
2019-04-26T19:09:12.107Z,55.21
2019-04-26T19:11:36.656Z,55.52
2019-04-26T19:14:06.373Z,55.47
2019-04-26T19:16:29.285Z,55.63
2019-04-26T19:18:55.662Z,55.84
2019-04-26T19:21:21.985Z,56.02
2019-04-26T19:23:48.301Z,56.17
2019-04-26T19:26:15.190Z,56.38
2019-04-26T19:28:42.937Z,56.53
2019-04-26T19:31:07.258Z,56.79
2019-04-26T19:33:33.557Z,56.85
2019-04-26T19:35:59.894Z,57.00
2019-04-26T19:38:26.196Z,57.36
2019-04-26T19:40:52.586Z,57.93
2019-04-26T19:43:30.152Z,58.30
2019-04-26T19:45:47.007Z,58.63
2019-04-26T19:48:15.825Z,58.87
2019-04-26T19:50:42.333Z,59.00
2019-04-26T19:53:04.221Z,59.27
2019-04-26T19:55:31.864Z,59.90
2019-04-26T19:57:56.823Z,60.39
2019-04-26T20:00:23.158Z,61.00
2019-04-26T20:02:49.466Z,61.24
2019-04-26T20:05:17.334Z,61.61
2019-04-26T20:07:42.130Z,61.85
2019-04-26T20:10:08.432Z,62.60
2019-04-26T20:12:37.928Z,62.75
2019-04-26T20:15:02.305Z,63.12
2019-04-26T20:17:27.422Z,63.85
2019-04-26T20:19:54.459Z,63.83
2019-04-26T20:22:26.053Z,64.22
2019-04-26T20:24:48.547Z,64.56
2019-04-26T20:27:19.508Z,64.79
2019-04-26T20:29:40.836Z,65.21
2019-04-26T20:32:05.345Z,65.11
2019-04-26T20:34:32.142Z,65.59
2019-04-26T20:36:58.012Z,66.01
2019-04-26T20:39:24.317Z,66.30
2019-04-26T20:42:00.705Z,65.89
2019-04-26T20:44:16.977Z,66.11
2019-04-26T20:46:43.285Z,66.36
2019-04-26T20:49:11.235Z,66.30
2019-04-26T20:51:35.937Z,66.55
2019-04-26T20:54:03.905Z,66.69
2019-04-26T20:56:28.574Z,66.57
2019-04-26T20:58:57.453Z,67.01
2019-04-26T21:01:22.379Z,67.05
2019-04-26T21:03:47.526Z,67.46
2019-04-26T21:06:13.869Z,67.40
2019-04-26T21:08:42.101Z,67.59
2019-04-26T21:11:06.511Z,67.66
2019-04-26T21:13:32.846Z,67.54
2019-04-26T21:16:03.525Z,67.62
2019-04-26T21:18:25.483Z,67.75
2019-04-26T21:20:52.159Z,67.92
2019-04-26T21:23:18.112Z,68.19
2019-04-26T21:25:44.447Z,68.28
2019-04-26T21:28:11.584Z,67.98
2019-04-26T21:30:38.565Z,68.35
2019-04-26T21:33:03.419Z,68.36
2019-04-26T21:35:29.750Z,68.01
2019-04-26T21:37:56.555Z,68.20
2019-04-26T21:40:24.855Z,68.25
2019-04-26T21:42:48.725Z,68.42
2019-04-26T21:45:15.034Z,68.33
2019-04-26T21:47:43.371Z,68.61
2019-04-26T21:50:07.678Z,68.61
2019-04-26T21:52:34.352Z,68.72
2019-04-26T21:55:00.342Z,68.86
2019-04-26T21:57:28.255Z,69.13
2019-04-26T21:59:54.024Z,68.96
2019-04-26T22:02:19.310Z,69.42
2019-04-26T22:04:45.660Z,69.31
2019-04-26T22:07:11.963Z,69.72
2019-04-26T22:09:38.292Z,69.98
2019-04-26T22:12:04.601Z,69.88
2019-04-26T22:14:30.959Z,70.19
2019-04-26T22:16:57.671Z,70.30
2019-04-26T22:19:23.912Z,70.77
2019-04-26T22:21:49.933Z,70.84
2019-04-26T22:24:16.240Z,70.75
2019-04-26T22:26:47.682Z,70.88
2019-04-26T22:29:14.224Z,71.15
2019-04-26T22:31:37.990Z,71.36
2019-04-26T22:34:07.267Z,71.57
2019-04-26T22:36:30.799Z,71.38
2019-04-26T22:38:55.644Z,71.68
2019-04-26T22:41:20.536Z,71.58
2019-04-26T22:43:49.623Z,71.63
2019-04-26T22:46:14.117Z,71.87
2019-04-26T22:48:39.451Z,71.90
2019-04-26T22:51:05.789Z,72.45
2019-04-26T22:53:32.825Z,72.52
2019-04-26T22:56:01.343Z,72.73
2019-04-26T22:58:28.570Z,72.77
2019-04-26T23:00:51.069Z,73.15
2019-04-26T23:03:17.740Z,73.16
2019-04-26T23:05:44.014Z,73.50
2019-04-26T23:08:10.341Z,73.61
2019-04-26T23:13:13.240Z,73.52
2019-04-26T23:15:38.249Z,73.65
2019-04-26T23:18:08.216Z,73.57
2019-04-26T23:20:34.383Z,73.38
2019-04-26T23:23:00.422Z,73.46
2019-04-26T23:25:27.766Z,73.66
2019-04-26T23:27:54.413Z,73.64
2019-04-26T23:30:16.745Z,73.58
2019-04-26T23:32:43.474Z,73.66
2019-04-26T23:35:09.392Z,73.37
2019-04-26T23:37:35.724Z,73.74
2019-04-26T23:40:03.834Z,73.74
2019-04-26T23:42:28.352Z,73.88
2019-04-26T23:44:54.678Z,74.32
2019-04-26T23:47:23.235Z,74.68
2019-04-26T23:49:49.327Z,74.31
2019-04-26T23:52:14.481Z,74.20
2019-04-26T23:54:41.675Z,74.44
2019-04-26T23:57:08.404Z,73.88
2019-04-26T23:59:45.315Z,73.52
